VBD207 SEGU-SPJC
Flight info
| Callsign | VBD207 |
|---|---|
| Flight time | 1h 35m |
| Altitude | 35000 |
| Route | MIMIT2 EVRED UL780 TRU UV1 ATATU |
| Aircraft | B738/M-SDE2E3FGHIRWXY/LB1 |
Departure
| Time | 2026-05-07 06:07 |
|---|---|
| Airport | José Joaquín de Olmedo International Airport (SEGU) |
Arrival
| Time | 2026-05-07 07:42 |
|---|---|
| Airport | Jorge Chávez International Airport (SPJC) |
| Time | Latitude | Longitude | Altitude | Speed | Heading |
|---|---|---|---|---|---|
| 2026-05-07 05:46 | -2.14949 | -79.88365 | 21 ft | 0 kts | 298° |
| 2026-05-07 05:55 | -2.14952 | -79.88360 | 21 ft | 3 kts | 297° |
| 2026-05-07 05:56 | -2.14962 | -79.88339 | 24 ft | 3 kts | 297° |
| 2026-05-07 05:56 | -2.14967 | -79.88316 | 23 ft | 3 kts | 253° |
| 2026-05-07 05:56 | -2.14953 | -79.88298 | 24 ft | 3 kts | 207° |
| 2026-05-07 05:59 | -2.14963 | -79.88303 | 23 ft | 5 kts | 207° |
| 2026-05-07 05:59 | -2.15022 | -79.88335 | 21 ft | 13 kts | 209° |
| 2026-05-07 05:59 | -2.15102 | -79.88380 | 22 ft | 11 kts | 210° |
| 2026-05-07 05:59 | -2.15176 | -79.88374 | 21 ft | 13 kts | 132° |
| 2026-05-07 06:00 | -2.15225 | -79.88291 | 23 ft | 15 kts | 120° |
| 2026-05-07 06:00 | -2.15297 | -79.88228 | 21 ft | 15 kts | 181° |
| 2026-05-07 06:00 | -2.15399 | -79.88278 | 22 ft | 18 kts | 210° |
| 2026-05-07 06:00 | -2.15507 | -79.88341 | 21 ft | 16 kts | 209° |
| 2026-05-07 06:01 | -2.15613 | -79.88402 | 23 ft | 19 kts | 210° |
| 2026-05-07 06:01 | -2.15721 | -79.88463 | 21 ft | 18 kts | 210° |
| 2026-05-07 06:01 | -2.15832 | -79.88526 | 22 ft | 16 kts | 210° |
| 2026-05-07 06:01 | -2.15936 | -79.88587 | 22 ft | 18 kts | 210° |
| 2026-05-07 06:02 | -2.16044 | -79.88649 | 22 ft | 16 kts | 210° |
| 2026-05-07 06:02 | -2.16148 | -79.88709 | 24 ft | 18 kts | 210° |
| 2026-05-07 06:02 | -2.16255 | -79.88770 | 23 ft | 17 kts | 210° |
| 2026-05-07 06:02 | -2.16364 | -79.88834 | 24 ft | 19 kts | 211° |
| 2026-05-07 06:03 | -2.16469 | -79.88895 | 24 ft | 18 kts | 210° |
| 2026-05-07 06:03 | -2.16577 | -79.88957 | 24 ft | 17 kts | 210° |
| 2026-05-07 06:03 | -2.16672 | -79.89011 | 23 ft | 16 kts | 208° |
| 2026-05-07 06:03 | -2.16760 | -79.89042 | 23 ft | 9 kts | 181° |
| 2026-05-07 06:04 | -2.16786 | -79.89032 | 24 ft | 3 kts | 143° |
| 2026-05-07 06:04 | -2.16800 | -79.89001 | 23 ft | 6 kts | 93° |
| 2026-05-07 06:04 | -2.16772 | -79.88957 | 22 ft | 9 kts | 36° |
| 2026-05-07 06:04 | -2.16731 | -79.88932 | 22 ft | 0 kts | 30° |
| 2026-05-07 06:05 | -2.16730 | -79.88932 | 22 ft | 0 kts | 30° |
| 2026-05-07 06:06 | -2.16728 | -79.88930 | 22 ft | 4 kts | 30° |
| 2026-05-07 06:06 | -2.16554 | -79.88831 | 24 ft | 62 kts | 30° |
| 2026-05-07 06:06 | -2.15985 | -79.88506 | 22 ft | 124 kts | 30° |
| 2026-05-07 06:06 | -2.15085 | -79.88009 | 49 ft | 171 kts | 27° |
| 2026-05-07 06:07 | -2.14049 | -79.87417 | 793 ft | 162 kts | 31° |
| 2026-05-07 06:07 | -2.13049 | -79.86768 | 1272 ft | 191 kts | 33° |
| 2026-05-07 06:07 | -2.11858 | -79.86038 | 1928 ft | 206 kts | 30° |
| 2026-05-07 06:07 | -2.10663 | -79.85140 | 2295 ft | 225 kts | 58° |
| 2026-05-07 06:08 | -2.10342 | -79.83623 | 2739 ft | 230 kts | 99° |
| 2026-05-07 06:08 | -2.10959 | -79.82146 | 3275 ft | 234 kts | 130° |
| 2026-05-07 06:08 | -2.12245 | -79.81207 | 3956 ft | 233 kts | 163° |
| 2026-05-07 06:08 | -2.13851 | -79.81123 | 4559 ft | 235 kts | 189° |
| 2026-05-07 06:09 | -2.15454 | -79.81384 | 5140 ft | 239 kts | 189° |
| 2026-05-07 06:09 | -2.17102 | -79.81647 | 5768 ft | 241 kts | 189° |
| 2026-05-07 06:09 | -2.18766 | -79.81899 | 6403 ft | 243 kts | 188° |
| 2026-05-07 06:09 | -2.20443 | -79.82145 | 6948 ft | 245 kts | 188° |
| 2026-05-07 06:10 | -2.22143 | -79.82387 | 7517 ft | 248 kts | 185° |
| 2026-05-07 06:10 | -2.23919 | -79.82420 | 7790 ft | 266 kts | 176° |
| 2026-05-07 06:10 | -2.25812 | -79.82278 | 8196 ft | 277 kts | 174° |
| 2026-05-07 06:10 | -2.27744 | -79.82101 | 8798 ft | 280 kts | 174° |
| 2026-05-07 06:11 | -2.29664 | -79.81926 | 9457 ft | 283 kts | 174° |
| 2026-05-07 06:11 | -2.31632 | -79.81756 | 10081 ft | 285 kts | 174° |
| 2026-05-07 06:11 | -2.33665 | -79.81585 | 10354 ft | 303 kts | 174° |
| 2026-05-07 06:11 | -2.35841 | -79.81399 | 10497 ft | 324 kts | 174° |
| 2026-05-07 06:12 | -2.38152 | -79.81218 | 10627 ft | 342 kts | 174° |
| 2026-05-07 06:12 | -2.40575 | -79.81032 | 10874 ft | 354 kts | 174° |
| 2026-05-07 06:12 | -2.43050 | -79.80847 | 11355 ft | 359 kts | 174° |
| 2026-05-07 06:12 | -2.45546 | -79.80661 | 11926 ft | 361 kts | 174° |
| 2026-05-07 06:13 | -2.48058 | -79.80474 | 12504 ft | 363 kts | 174° |
| 2026-05-07 06:13 | -2.50551 | -79.80288 | 13052 ft | 366 kts | 174° |
| 2026-05-07 06:13 | -2.53096 | -79.80098 | 13617 ft | 368 kts | 174° |
| 2026-05-07 06:13 | -2.54839 | -79.79968 | 13964 ft | 370 kts | 174° |
| 2026-05-07 06:14 | -2.57419 | -79.79775 | 14470 ft | 373 kts | 174° |
| 2026-05-07 06:14 | -2.60016 | -79.79580 | 15005 ft | 375 kts | 174° |
| 2026-05-07 06:14 | -2.62625 | -79.79385 | 15539 ft | 377 kts | 174° |
| 2026-05-07 06:14 | -2.65247 | -79.79189 | 16040 ft | 380 kts | 174° |
| 2026-05-07 06:15 | -2.67892 | -79.78991 | 16534 ft | 382 kts | 174° |
| 2026-05-07 06:15 | -2.70549 | -79.78792 | 17047 ft | 385 kts | 174° |
| 2026-05-07 06:15 | -2.73191 | -79.78594 | 17527 ft | 387 kts | 174° |
| 2026-05-07 06:15 | -2.75889 | -79.78393 | 18001 ft | 390 kts | 174° |
| 2026-05-07 06:16 | -2.78600 | -79.78190 | 18452 ft | 392 kts | 174° |
| 2026-05-07 06:16 | -2.81328 | -79.77964 | 18845 ft | 395 kts | 172° |
| 2026-05-07 06:16 | -2.84062 | -79.77647 | 19240 ft | 397 kts | 171° |
| 2026-05-07 06:16 | -2.86814 | -79.77284 | 19636 ft | 400 kts | 170° |
| 2026-05-07 06:17 | -2.89577 | -79.76906 | 20010 ft | 402 kts | 170° |
| 2026-05-07 06:17 | -2.92365 | -79.76527 | 20390 ft | 405 kts | 170° |
| 2026-05-07 06:17 | -2.95131 | -79.76158 | 20772 ft | 408 kts | 170° |
| 2026-05-07 06:17 | -2.97951 | -79.75787 | 21136 ft | 411 kts | 170° |
| 2026-05-07 06:18 | -3.00796 | -79.75417 | 21507 ft | 413 kts | 170° |
| 2026-05-07 06:18 | -3.03657 | -79.75049 | 21870 ft | 416 kts | 170° |
| 2026-05-07 06:18 | -3.06537 | -79.74679 | 22237 ft | 418 kts | 170° |
| 2026-05-07 06:18 | -3.09422 | -79.74309 | 22566 ft | 420 kts | 170° |
| 2026-05-07 06:19 | -3.12329 | -79.73942 | 22843 ft | 423 kts | 171° |
| 2026-05-07 06:19 | -3.15261 | -79.73575 | 23163 ft | 426 kts | 170° |
| 2026-05-07 06:19 | -3.18205 | -79.73196 | 23523 ft | 427 kts | 170° |
| 2026-05-07 06:19 | -3.21122 | -79.72820 | 23778 ft | 429 kts | 170° |
| 2026-05-07 06:20 | -3.24082 | -79.72439 | 24035 ft | 430 kts | 170° |
| 2026-05-07 06:20 | -3.27058 | -79.72057 | 24320 ft | 432 kts | 170° |
| 2026-05-07 06:20 | -3.30046 | -79.71674 | 24582 ft | 433 kts | 170° |
| 2026-05-07 06:20 | -3.33037 | -79.71290 | 24839 ft | 435 kts | 170° |
| 2026-05-07 06:21 | -3.36054 | -79.70906 | 25082 ft | 438 kts | 170° |
| 2026-05-07 06:21 | -3.39082 | -79.70518 | 25326 ft | 440 kts | 170° |
| 2026-05-07 06:21 | -3.42121 | -79.70129 | 25594 ft | 441 kts | 170° |
| 2026-05-07 06:21 | -3.45168 | -79.69739 | 25853 ft | 443 kts | 170° |
| 2026-05-07 06:22 | -3.48189 | -79.69352 | 26109 ft | 444 kts | 170° |
| 2026-05-07 06:22 | -3.54335 | -79.68565 | 26610 ft | 447 kts | 171° |
| 2026-05-07 06:22 | -3.57430 | -79.68169 | 26832 ft | 449 kts | 171° |
| 2026-05-07 06:23 | -3.60538 | -79.67770 | 27049 ft | 451 kts | 171° |
| 2026-05-07 06:23 | -3.63660 | -79.67371 | 27293 ft | 453 kts | 171° |
| 2026-05-07 06:23 | -3.66791 | -79.66970 | 27523 ft | 454 kts | 171° |
| 2026-05-07 06:23 | -3.69930 | -79.66567 | 27735 ft | 456 kts | 171° |
| 2026-05-07 06:24 | -3.73042 | -79.66169 | 27917 ft | 458 kts | 171° |
| 2026-05-07 06:24 | -3.76209 | -79.65763 | 28135 ft | 459 kts | 171° |
| 2026-05-07 06:24 | -3.79386 | -79.65356 | 28329 ft | 461 kts | 171° |
| 2026-05-07 06:24 | -3.82571 | -79.64949 | 28546 ft | 463 kts | 171° |
| 2026-05-07 06:25 | -3.85772 | -79.64539 | 28744 ft | 464 kts | 171° |
| 2026-05-07 06:25 | -3.88980 | -79.64128 | 28923 ft | 466 kts | 171° |
| 2026-05-07 06:25 | -3.92201 | -79.63715 | 29083 ft | 467 kts | 171° |
| 2026-05-07 06:25 | -3.95431 | -79.63301 | 29258 ft | 469 kts | 171° |
| 2026-05-07 06:26 | -3.98673 | -79.62883 | 29425 ft | 471 kts | 171° |
| 2026-05-07 06:26 | -4.01884 | -79.62468 | 29582 ft | 472 kts | 171° |
| 2026-05-07 06:26 | -4.05137 | -79.62052 | 29829 ft | 472 kts | 171° |
| 2026-05-07 06:26 | -4.08391 | -79.61638 | 30122 ft | 471 kts | 171° |
| 2026-05-07 06:27 | -4.11636 | -79.61226 | 30350 ft | 471 kts | 172° |
| 2026-05-07 06:27 | -4.14878 | -79.60812 | 30615 ft | 469 kts | 171° |
| 2026-05-07 06:27 | -4.18111 | -79.60400 | 30881 ft | 468 kts | 171° |
| 2026-05-07 06:27 | -4.21336 | -79.59985 | 31120 ft | 467 kts | 172° |
| 2026-05-07 06:28 | -4.24557 | -79.59570 | 31352 ft | 466 kts | 172° |
| 2026-05-07 06:28 | -4.27775 | -79.59156 | 31600 ft | 465 kts | 172° |
| 2026-05-07 06:28 | -4.30982 | -79.58743 | 31857 ft | 465 kts | 173° |
| 2026-05-07 06:28 | -4.34141 | -79.58338 | 32118 ft | 463 kts | 173° |
| 2026-05-07 06:29 | -4.37336 | -79.57928 | 32380 ft | 462 kts | 173° |
| 2026-05-07 06:29 | -4.40527 | -79.57519 | 32650 ft | 461 kts | 174° |
| 2026-05-07 06:29 | -4.43700 | -79.57111 | 32918 ft | 460 kts | 174° |
| 2026-05-07 06:29 | -4.46876 | -79.56704 | 33158 ft | 460 kts | 174° |
| 2026-05-07 06:30 | -4.50052 | -79.56296 | 33404 ft | 460 kts | 174° |
| 2026-05-07 06:30 | -4.53225 | -79.55892 | 33663 ft | 459 kts | 174° |
| 2026-05-07 06:30 | -4.56392 | -79.55497 | 33961 ft | 458 kts | 174° |
| 2026-05-07 06:30 | -4.59537 | -79.55102 | 34264 ft | 455 kts | 175° |
| 2026-05-07 06:31 | -4.62636 | -79.54716 | 34486 ft | 454 kts | 175° |
| 2026-05-07 06:31 | -4.65775 | -79.54326 | 34681 ft | 455 kts | 175° |
| 2026-05-07 06:31 | -4.68917 | -79.53935 | 34842 ft | 455 kts | 175° |
| 2026-05-07 06:31 | -4.72060 | -79.53544 | 35032 ft | 454 kts | 175° |
| 2026-05-07 06:32 | -4.78346 | -79.52760 | 35104 ft | 456 kts | 175° |
| 2026-05-07 06:32 | -4.84590 | -79.51979 | 35115 ft | 454 kts | 175° |
| 2026-05-07 06:33 | -4.90855 | -79.51195 | 35120 ft | 453 kts | 175° |
| 2026-05-07 06:33 | -4.97101 | -79.50414 | 35119 ft | 452 kts | 175° |
| 2026-05-07 06:34 | -5.03344 | -79.49635 | 35122 ft | 452 kts | 175° |
| 2026-05-07 06:34 | -5.09589 | -79.48853 | 35108 ft | 451 kts | 175° |
| 2026-05-07 06:35 | -5.15772 | -79.48079 | 35114 ft | 451 kts | 175° |
| 2026-05-07 06:35 | -5.21998 | -79.47296 | 35127 ft | 451 kts | 175° |
| 2026-05-07 06:36 | -5.28238 | -79.46517 | 35109 ft | 452 kts | 175° |
| 2026-05-07 06:36 | -5.34486 | -79.45736 | 35108 ft | 453 kts | 175° |
| 2026-05-07 06:37 | -5.40713 | -79.44957 | 35104 ft | 454 kts | 175° |
| 2026-05-07 06:37 | -5.47004 | -79.44168 | 35087 ft | 455 kts | 175° |
| 2026-05-07 06:38 | -5.53284 | -79.43380 | 35095 ft | 455 kts | 175° |
| 2026-05-07 06:38 | -5.59576 | -79.42593 | 35097 ft | 456 kts | 175° |
| 2026-05-07 06:39 | -5.65829 | -79.41809 | 35075 ft | 456 kts | 175° |
| 2026-05-07 06:39 | -5.72139 | -79.41018 | 35081 ft | 457 kts | 175° |
| 2026-05-07 06:40 | -5.78441 | -79.40228 | 35087 ft | 456 kts | 175° |
| 2026-05-07 06:40 | -5.84754 | -79.39436 | 35093 ft | 457 kts | 175° |
| 2026-05-07 06:41 | -5.91020 | -79.38649 | 35091 ft | 457 kts | 175° |
| 2026-05-07 06:41 | -5.97355 | -79.37853 | 35092 ft | 459 kts | 175° |
| 2026-05-07 06:42 | -6.03685 | -79.37059 | 35093 ft | 458 kts | 175° |
| 2026-05-07 06:42 | -6.10009 | -79.36266 | 35093 ft | 457 kts | 175° |
| 2026-05-07 06:43 | -6.16287 | -79.35476 | 35078 ft | 457 kts | 175° |
| 2026-05-07 06:43 | -6.22588 | -79.34685 | 35081 ft | 456 kts | 175° |
| 2026-05-07 06:44 | -6.28879 | -79.33895 | 35076 ft | 455 kts | 175° |
| 2026-05-07 06:44 | -6.35153 | -79.33105 | 35066 ft | 454 kts | 175° |
| 2026-05-07 06:45 | -6.41368 | -79.32325 | 35067 ft | 453 kts | 175° |
| 2026-05-07 06:45 | -6.47613 | -79.31540 | 35045 ft | 453 kts | 175° |
| 2026-05-07 06:46 | -6.53861 | -79.30754 | 35047 ft | 452 kts | 175° |
| 2026-05-07 06:46 | -6.60109 | -79.29968 | 35044 ft | 452 kts | 175° |
| 2026-05-07 06:47 | -6.66315 | -79.29188 | 35029 ft | 453 kts | 175° |
| 2026-05-07 06:47 | -6.72567 | -79.28401 | 35033 ft | 453 kts | 175° |
| 2026-05-07 06:48 | -6.78832 | -79.27612 | 35026 ft | 454 kts | 175° |
| 2026-05-07 06:48 | -6.85103 | -79.26823 | 35031 ft | 455 kts | 175° |
| 2026-05-07 06:49 | -6.91392 | -79.26031 | 35027 ft | 456 kts | 175° |
| 2026-05-07 06:49 | -6.97649 | -79.25242 | 35019 ft | 457 kts | 176° |
| 2026-05-07 06:50 | -7.03951 | -79.24448 | 35018 ft | 457 kts | 176° |
| 2026-05-07 06:50 | -7.10263 | -79.23652 | 35015 ft | 457 kts | 176° |
| 2026-05-07 06:51 | -7.16560 | -79.22857 | 35004 ft | 456 kts | 176° |
| 2026-05-07 06:51 | -7.22807 | -79.22069 | 35009 ft | 456 kts | 176° |
| 2026-05-07 06:52 | -7.29094 | -79.21277 | 34997 ft | 455 kts | 176° |
| 2026-05-07 06:52 | -7.35373 | -79.20485 | 34997 ft | 455 kts | 176° |
| 2026-05-07 06:53 | -7.41652 | -79.19693 | 34994 ft | 454 kts | 176° |
| 2026-05-07 06:53 | -7.47931 | -79.18899 | 34984 ft | 454 kts | 176° |
| 2026-05-07 06:54 | -7.54160 | -79.18112 | 34988 ft | 454 kts | 176° |
| 2026-05-07 06:54 | -7.60446 | -79.17319 | 34988 ft | 455 kts | 176° |
| 2026-05-07 06:55 | -7.66728 | -79.16524 | 34977 ft | 454 kts | 176° |
| 2026-05-07 06:55 | -7.73004 | -79.15730 | 34966 ft | 454 kts | 176° |
| 2026-05-07 06:56 | -7.79233 | -79.14943 | 34963 ft | 454 kts | 176° |
| 2026-05-07 06:56 | -7.85493 | -79.14151 | 34967 ft | 453 kts | 176° |
| 2026-05-07 06:57 | -7.91757 | -79.13359 | 34963 ft | 454 kts | 176° |
| 2026-05-07 06:57 | -7.98021 | -79.12565 | 34970 ft | 454 kts | 176° |
| 2026-05-07 06:58 | -8.04250 | -79.11777 | 34967 ft | 454 kts | 176° |
| 2026-05-07 06:58 | -8.10406 | -79.10306 | 34967 ft | 460 kts | 161° |
| 2026-05-07 06:59 | -8.16108 | -79.07308 | 34964 ft | 463 kts | 154° |
| 2026-05-07 06:59 | -8.21725 | -79.04096 | 34965 ft | 464 kts | 153° |
| 2026-05-07 07:00 | -8.27323 | -79.00930 | 34958 ft | 464 kts | 154° |
| 2026-05-07 07:00 | -8.32978 | -78.97775 | 34957 ft | 465 kts | 154° |
| 2026-05-07 07:01 | -8.38653 | -78.94624 | 34962 ft | 466 kts | 154° |
| 2026-05-07 07:01 | -8.44334 | -78.91468 | 34962 ft | 467 kts | 154° |
| 2026-05-07 07:02 | -8.49995 | -78.88322 | 34957 ft | 468 kts | 154° |
| 2026-05-07 07:02 | -8.55711 | -78.85140 | 34961 ft | 469 kts | 154° |
| 2026-05-07 07:03 | -8.61437 | -78.81954 | 34964 ft | 470 kts | 154° |
| 2026-05-07 07:03 | -8.66193 | -78.79306 | 34963 ft | 470 kts | 154° |
| 2026-05-07 07:04 | -8.72856 | -78.75596 | 34969 ft | 471 kts | 154° |
| 2026-05-07 07:04 | -8.78594 | -78.72399 | 34961 ft | 471 kts | 154° |
| 2026-05-07 07:05 | -8.83359 | -78.69745 | 34970 ft | 471 kts | 154° |
| 2026-05-07 07:05 | -8.89098 | -78.66546 | 34972 ft | 471 kts | 154° |
| 2026-05-07 07:06 | -8.94829 | -78.63349 | 34977 ft | 471 kts | 154° |
| 2026-05-07 07:06 | -9.01492 | -78.59632 | 34974 ft | 471 kts | 154° |
| 2026-05-07 07:07 | -9.06258 | -78.56972 | 34972 ft | 471 kts | 154° |
| 2026-05-07 07:07 | -9.11990 | -78.53770 | 34975 ft | 470 kts | 154° |
| 2026-05-07 07:08 | -9.17762 | -78.50661 | 34980 ft | 470 kts | 156° |
| 2026-05-07 07:08 | -9.23659 | -78.47814 | 34985 ft | 470 kts | 158° |
| 2026-05-07 07:09 | -9.29581 | -78.45001 | 34976 ft | 471 kts | 158° |
| 2026-05-07 07:09 | -9.35465 | -78.42167 | 34975 ft | 471 kts | 157° |
| 2026-05-07 07:10 | -9.41377 | -78.39295 | 34973 ft | 472 kts | 157° |
| 2026-05-07 07:10 | -9.47292 | -78.36416 | 34981 ft | 472 kts | 157° |
| 2026-05-07 07:11 | -9.53172 | -78.33553 | 34981 ft | 472 kts | 157° |
| 2026-05-07 07:11 | -9.59090 | -78.30671 | 34970 ft | 472 kts | 157° |
| 2026-05-07 07:12 | -9.65012 | -78.27787 | 34976 ft | 472 kts | 157° |
| 2026-05-07 07:12 | -9.70914 | -78.24912 | 34971 ft | 466 kts | 157° |
| 2026-05-07 07:13 | -9.76697 | -78.22092 | 34974 ft | 458 kts | 157° |
| 2026-05-07 07:13 | -9.82401 | -78.19313 | 34757 ft | 460 kts | 157° |
| 2026-05-07 07:14 | -9.85274 | -78.17913 | 34430 ft | 455 kts | 157° |
| 2026-05-07 07:14 | -9.88120 | -78.16524 | 34051 ft | 452 kts | 157° |
| 2026-05-07 07:14 | -9.90942 | -78.15146 | 33630 ft | 450 kts | 157° |
| 2026-05-07 07:14 | -9.93754 | -78.13773 | 33219 ft | 447 kts | 156° |
| 2026-05-07 07:15 | -9.96551 | -78.12409 | 32812 ft | 444 kts | 156° |
| 2026-05-07 07:15 | -9.99323 | -78.11057 | 32415 ft | 442 kts | 156° |
| 2026-05-07 07:15 | -10.02053 | -78.09724 | 32026 ft | 439 kts | 155° |
| 2026-05-07 07:15 | -10.04831 | -78.08368 | 31631 ft | 436 kts | 155° |
| 2026-05-07 07:16 | -10.07522 | -78.07053 | 31258 ft | 434 kts | 155° |
| 2026-05-07 07:16 | -10.10241 | -78.05726 | 30867 ft | 432 kts | 154° |
| 2026-05-07 07:16 | -10.12938 | -78.04408 | 30482 ft | 430 kts | 154° |
| 2026-05-07 07:16 | -10.15629 | -78.03092 | 30094 ft | 429 kts | 154° |
| 2026-05-07 07:17 | -10.18312 | -78.01780 | 29650 ft | 427 kts | 154° |
| 2026-05-07 07:17 | -10.20978 | -78.00477 | 29221 ft | 424 kts | 154° |
| 2026-05-07 07:17 | -10.23625 | -77.99182 | 28778 ft | 421 kts | 154° |
| 2026-05-07 07:17 | -10.26259 | -77.97894 | 28370 ft | 418 kts | 154° |
| 2026-05-07 07:18 | -10.28831 | -77.96635 | 27969 ft | 415 kts | 154° |
| 2026-05-07 07:18 | -10.31427 | -77.95365 | 27569 ft | 412 kts | 154° |
| 2026-05-07 07:18 | -10.33997 | -77.94107 | 27172 ft | 409 kts | 154° |
| 2026-05-07 07:18 | -10.36555 | -77.92854 | 26786 ft | 407 kts | 154° |
| 2026-05-07 07:19 | -10.39100 | -77.91607 | 26401 ft | 404 kts | 154° |
| 2026-05-07 07:19 | -10.41622 | -77.90371 | 26007 ft | 402 kts | 154° |
| 2026-05-07 07:19 | -10.44131 | -77.89141 | 25613 ft | 400 kts | 154° |
| 2026-05-07 07:19 | -10.46633 | -77.87915 | 25217 ft | 398 kts | 154° |
| 2026-05-07 07:20 | -10.49085 | -77.86713 | 24829 ft | 396 kts | 154° |
| 2026-05-07 07:20 | -10.51594 | -77.85483 | 24429 ft | 394 kts | 154° |
| 2026-05-07 07:20 | -10.54024 | -77.84291 | 24043 ft | 392 kts | 154° |
| 2026-05-07 07:20 | -10.56474 | -77.83090 | 23651 ft | 391 kts | 154° |
| 2026-05-07 07:21 | -10.58925 | -77.81890 | 23201 ft | 389 kts | 154° |
| 2026-05-07 07:21 | -10.61350 | -77.80704 | 22791 ft | 386 kts | 154° |
| 2026-05-07 07:21 | -10.63761 | -77.79525 | 22393 ft | 383 kts | 154° |
| 2026-05-07 07:21 | -10.66153 | -77.78356 | 22002 ft | 380 kts | 154° |
| 2026-05-07 07:22 | -10.68525 | -77.77195 | 21614 ft | 377 kts | 154° |
| 2026-05-07 07:22 | -10.70848 | -77.76058 | 21243 ft | 374 kts | 154° |
| 2026-05-07 07:22 | -10.73180 | -77.74916 | 20871 ft | 371 kts | 154° |
| 2026-05-07 07:22 | -10.75505 | -77.73777 | 20498 ft | 369 kts | 154° |
| 2026-05-07 07:23 | -10.77814 | -77.72646 | 20121 ft | 367 kts | 154° |
| 2026-05-07 07:23 | -10.80107 | -77.71522 | 19734 ft | 366 kts | 153° |
| 2026-05-07 07:23 | -10.82396 | -77.70400 | 19355 ft | 364 kts | 153° |
| 2026-05-07 07:23 | -10.84677 | -77.69282 | 18981 ft | 363 kts | 153° |
| 2026-05-07 07:24 | -10.86946 | -77.68169 | 18603 ft | 362 kts | 154° |
| 2026-05-07 07:24 | -10.89210 | -77.67058 | 18225 ft | 361 kts | 153° |
| 2026-05-07 07:24 | -10.91437 | -77.65967 | 17822 ft | 359 kts | 153° |
| 2026-05-07 07:24 | -10.93677 | -77.64868 | 17433 ft | 357 kts | 153° |
| 2026-05-07 07:25 | -10.98111 | -77.62694 | 16690 ft | 351 kts | 154° |
| 2026-05-07 07:25 | -11.00306 | -77.61616 | 16328 ft | 349 kts | 154° |
| 2026-05-07 07:25 | -11.02487 | -77.60546 | 15969 ft | 347 kts | 154° |
| 2026-05-07 07:26 | -11.04653 | -77.59482 | 15606 ft | 345 kts | 154° |
| 2026-05-07 07:26 | -11.06811 | -77.58423 | 15243 ft | 344 kts | 154° |
| 2026-05-07 07:26 | -11.08931 | -77.57381 | 14894 ft | 342 kts | 154° |
| 2026-05-07 07:26 | -11.11073 | -77.56329 | 14517 ft | 341 kts | 154° |
| 2026-05-07 07:27 | -11.13204 | -77.55283 | 14153 ft | 340 kts | 154° |
| 2026-05-07 07:27 | -11.15311 | -77.54247 | 13819 ft | 334 kts | 154° |
| 2026-05-07 07:27 | -11.17380 | -77.53230 | 13415 ft | 325 kts | 154° |
| 2026-05-07 07:27 | -11.19389 | -77.52243 | 13055 ft | 316 kts | 154° |
| 2026-05-07 07:28 | -11.21339 | -77.51284 | 12714 ft | 307 kts | 154° |
| 2026-05-07 07:28 | -11.23237 | -77.50351 | 12388 ft | 299 kts | 154° |
| 2026-05-07 07:28 | -11.25064 | -77.49456 | 12045 ft | 292 kts | 154° |
| 2026-05-07 07:28 | -11.26892 | -77.48587 | 11675 ft | 288 kts | 155° |
| 2026-05-07 07:29 | -11.28701 | -77.47739 | 11256 ft | 285 kts | 155° |
| 2026-05-07 07:29 | -11.30496 | -77.46899 | 10830 ft | 283 kts | 155° |
| 2026-05-07 07:29 | -11.32286 | -77.46059 | 10477 ft | 282 kts | 155° |
| 2026-05-07 07:29 | -11.34060 | -77.45225 | 10096 ft | 280 kts | 155° |
| 2026-05-07 07:30 | -11.35820 | -77.44398 | 9685 ft | 278 kts | 155° |
| 2026-05-07 07:30 | -11.37570 | -77.43575 | 9272 ft | 276 kts | 155° |
| 2026-05-07 07:30 | -11.39285 | -77.42768 | 8884 ft | 274 kts | 155° |
| 2026-05-07 07:30 | -11.41010 | -77.41955 | 8508 ft | 272 kts | 155° |
| 2026-05-07 07:31 | -11.42728 | -77.41146 | 8123 ft | 271 kts | 155° |
| 2026-05-07 07:31 | -11.44435 | -77.40342 | 7778 ft | 271 kts | 155° |
| 2026-05-07 07:31 | -11.46144 | -77.39536 | 7536 ft | 269 kts | 155° |
| 2026-05-07 07:31 | -11.47836 | -77.38738 | 7288 ft | 267 kts | 155° |
| 2026-05-07 07:32 | -11.49521 | -77.37944 | 7018 ft | 267 kts | 155° |
| 2026-05-07 07:32 | -11.51202 | -77.37152 | 6762 ft | 265 kts | 155° |
| 2026-05-07 07:32 | -11.52878 | -77.36361 | 6503 ft | 264 kts | 155° |
| 2026-05-07 07:32 | -11.54521 | -77.35586 | 6234 ft | 263 kts | 155° |
| 2026-05-07 07:33 | -11.56178 | -77.34805 | 5965 ft | 262 kts | 155° |
| 2026-05-07 07:33 | -11.57825 | -77.34027 | 5671 ft | 261 kts | 155° |
| 2026-05-07 07:33 | -11.59460 | -77.33256 | 5403 ft | 256 kts | 155° |
| 2026-05-07 07:33 | -11.61057 | -77.32502 | 5127 ft | 249 kts | 155° |
| 2026-05-07 07:34 | -11.62603 | -77.31774 | 4862 ft | 242 kts | 155° |
| 2026-05-07 07:34 | -11.64112 | -77.31063 | 4570 ft | 236 kts | 155° |
| 2026-05-07 07:34 | -11.65590 | -77.30365 | 4258 ft | 234 kts | 155° |
| 2026-05-07 07:34 | -11.67062 | -77.29669 | 4012 ft | 232 kts | 155° |
| 2026-05-07 07:35 | -11.68521 | -77.28981 | 3737 ft | 228 kts | 155° |
| 2026-05-07 07:35 | -11.69941 | -77.28310 | 3606 ft | 224 kts | 155° |
| 2026-05-07 07:35 | -11.71329 | -77.27654 | 3529 ft | 223 kts | 155° |
| 2026-05-07 07:35 | -11.72754 | -77.26981 | 3449 ft | 228 kts | 155° |
| 2026-05-07 07:36 | -11.74207 | -77.26294 | 3375 ft | 233 kts | 155° |
| 2026-05-07 07:36 | -11.75671 | -77.25603 | 3275 ft | 234 kts | 155° |
| 2026-05-07 07:36 | -11.77162 | -77.24898 | 3185 ft | 233 kts | 155° |
| 2026-05-07 07:36 | -11.78610 | -77.24213 | 3082 ft | 225 kts | 155° |
| 2026-05-07 07:37 | -11.80003 | -77.23554 | 2970 ft | 216 kts | 154° |
| 2026-05-07 07:37 | -11.81262 | -77.22769 | 2810 ft | 207 kts | 145° |
| 2026-05-07 07:37 | -11.82424 | -77.21931 | 2611 ft | 203 kts | 144° |
| 2026-05-07 07:37 | -11.83550 | -77.21119 | 2425 ft | 199 kts | 145° |
| 2026-05-07 07:38 | -11.84677 | -77.20311 | 2255 ft | 197 kts | 145° |
| 2026-05-07 07:38 | -11.85780 | -77.19536 | 2117 ft | 186 kts | 149° |
| 2026-05-07 07:38 | -11.86904 | -77.18943 | 2047 ft | 180 kts | 154° |
| 2026-05-07 07:38 | -11.88026 | -77.18403 | 1968 ft | 178 kts | 155° |
| 2026-05-07 07:39 | -11.89142 | -77.17857 | 1922 ft | 178 kts | 154° |
| 2026-05-07 07:39 | -11.90264 | -77.17307 | 1858 ft | 179 kts | 154° |
| 2026-05-07 07:39 | -11.91364 | -77.16764 | 1806 ft | 176 kts | 155° |
| 2026-05-07 07:39 | -11.92436 | -77.16236 | 1730 ft | 168 kts | 155° |
| 2026-05-07 07:40 | -11.93488 | -77.15720 | 1598 ft | 167 kts | 155° |
| 2026-05-07 07:40 | -11.94541 | -77.15201 | 1431 ft | 170 kts | 154° |
| 2026-05-07 07:40 | -11.95570 | -77.14663 | 1291 ft | 161 kts | 151° |
| 2026-05-07 07:40 | -11.96525 | -77.14126 | 1179 ft | 156 kts | 156° |
| 2026-05-07 07:41 | -11.97547 | -77.13686 | 881 ft | 161 kts | 159° |
| 2026-05-07 07:41 | -11.98541 | -77.13211 | 639 ft | 153 kts | 153° |
| 2026-05-07 07:41 | -11.99475 | -77.12744 | 403 ft | 147 kts | 156° |
| 2026-05-07 07:41 | -12.00384 | -77.12310 | 167 ft | 144 kts | 155° |
| 2026-05-07 07:42 | -12.01245 | -77.11890 | 63 ft | 127 kts | 155° |
| 2026-05-07 07:42 | -12.01785 | -77.11628 | 67 ft | 50 kts | 154° |
| 2026-05-07 07:42 | -12.02039 | -77.11503 | 70 ft | 38 kts | 154° |
| 2026-05-07 07:42 | -12.02253 | -77.11398 | 84 ft | 14 kts | 155° |
| 2026-05-07 07:43 | -12.02338 | -77.11357 | 87 ft | 13 kts | 154° |
| 2026-05-07 07:43 | -12.02427 | -77.11312 | 93 ft | 15 kts | 154° |
| 2026-05-07 07:43 | -12.02491 | -77.11255 | 92 ft | 13 kts | 106° |
| 2026-05-07 07:43 | -12.02459 | -77.11175 | 90 ft | 14 kts | 60° |
| 2026-05-07 07:44 | -12.02427 | -77.11089 | 93 ft | 15 kts | 66° |
| 2026-05-07 07:44 | -12.02390 | -77.11008 | 90 ft | 13 kts | 65° |
| 2026-05-07 07:44 | -12.02359 | -77.10944 | 90 ft | 1 kts | 64° |
| 2026-05-07 07:44 | -12.02352 | -77.10930 | 91 ft | 2 kts | 64° |
| 2026-05-07 07:45 | -12.02352 | -77.10929 | 91 ft | 0 kts | 64° |